Wastedo, Minnesota
Current Conditions -  °F | °C
As of 12:34 AM on Wednesday 26 Nov 2014 (Local Time) from KSYN Reporting Station
Overcast Overcast  
Wind Chill: 19°   Ceiling: 5000
Heat Index: 26°   Visibility: 10mi
Dew Point: 17°   Wind: 6mph
Humidity: 69%   Direction: 120°ESE
Pressure: 30.01"   Gusts: NA
Location:  44.4763°N, 92.8054°W
Report Text: KSYN 260634Z AUTO 12005KT 10SM OVC050 M03/M08 A3001 RMK AO2 T10351085
Loading
Personal Weather Stations






























Interactive Weather Map New forecast layout! Learn more

10-Day Weather Forecast

Advertisements
Track Severe Weather on mobile